createdAt,value
2022-11-15T00:00:19.481Z,86.88
2022-11-15T00:01:18.107Z,86.82
2022-11-15T00:02:17.622Z,86.71
2022-11-15T00:03:18.235Z,86.68
2022-11-15T00:04:17.311Z,86.79
2022-11-15T00:05:17.699Z,86.80
2022-11-15T00:06:17.906Z,86.80
2022-11-15T00:07:54.504Z,86.78
2022-11-15T00:08:18.185Z,86.78
2022-11-15T00:09:17.317Z,86.75
2022-11-15T00:10:17.357Z,86.70
2022-11-15T00:11:17.577Z,86.64
2022-11-15T00:12:17.514Z,86.66
2022-11-15T00:13:17.582Z,86.80
2022-11-15T00:14:17.560Z,86.89
2022-11-15T00:15:18.198Z,86.94
2022-11-15T00:16:17.390Z,86.92
2022-11-15T00:17:17.985Z,87.02
2022-11-15T00:18:17.028Z,87.07
2022-11-15T00:19:17.723Z,87.11
2022-11-15T00:20:17.663Z,87.05
2022-11-15T00:21:17.737Z,87.06
2022-11-15T00:22:18.276Z,87.04
2022-11-15T00:23:17.665Z,87.06
2022-11-15T00:24:18.094Z,87.10
2022-11-15T00:25:17.587Z,87.21
2022-11-15T00:26:17.416Z,87.31
2022-11-15T00:27:17.504Z,87.34
2022-11-15T00:28:17.184Z,87.37
2022-11-15T00:29:17.591Z,87.45
2022-11-15T00:30:18.182Z,87.32
2022-11-15T00:31:17.442Z,87.46
2022-11-15T00:32:17.506Z,87.45
2022-11-15T00:33:17.929Z,87.59
2022-11-15T00:34:17.330Z,87.70
2022-11-15T00:35:17.664Z,87.61
2022-11-15T00:36:17.511Z,87.55
2022-11-15T00:37:17.776Z,87.62
2022-11-15T00:38:17.554Z,87.73
2022-11-15T00:39:17.817Z,87.71
2022-11-15T00:40:17.917Z,87.71
2022-11-15T00:41:17.838Z,87.71
2022-11-15T00:42:17.969Z,87.71
2022-11-15T00:43:18.298Z,87.61
2022-11-15T00:44:17.353Z,87.68
2022-11-15T00:45:17.897Z,87.69
2022-11-15T00:46:18.175Z,87.72
2022-11-15T00:47:17.320Z,87.77
2022-11-15T00:48:17.527Z,87.69
2022-11-15T00:49:17.654Z,87.60
2022-11-15T00:51:17.955Z,87.72
2022-11-15T00:52:17.602Z,87.72
2022-11-15T00:53:17.815Z,87.73
2022-11-15T00:54:17.718Z,87.71
2022-11-15T00:55:18.221Z,87.70
2022-11-15T00:56:17.348Z,87.70
2022-11-15T00:57:17.590Z,87.71
2022-11-15T00:58:17.300Z,87.68
2022-11-15T00:59:17.393Z,87.72
2022-11-15T01:00:18.728Z,87.75
2022-11-15T01:01:20.651Z,87.63
2022-11-15T01:02:18.178Z,87.67
2022-11-15T01:03:17.739Z,87.69
2022-11-15T01:04:17.647Z,87.74
2022-11-15T01:05:17.859Z,87.76
2022-11-15T01:06:17.913Z,87.80
2022-11-15T01:07:18.110Z,87.85
2022-11-15T01:08:17.316Z,87.85
2022-11-15T01:09:17.540Z,87.90
2022-11-15T01:10:17.846Z,87.93
2022-11-15T01:11:18.204Z,87.86
2022-11-15T01:12:22.527Z,87.92
2022-11-15T01:13:17.760Z,87.99
2022-11-15T01:14:31.918Z,87.91
2022-11-15T01:15:18.007Z,87.91
2022-11-15T01:16:17.209Z,87.99
2022-11-15T01:17:17.828Z,88.02
2022-11-15T01:18:31.865Z,87.92
2022-11-15T01:19:18.045Z,87.92
2022-11-15T01:20:17.291Z,87.94
2022-11-15T01:21:17.502Z,88.10
2022-11-15T01:22:17.048Z,87.94
2022-11-15T01:23:17.484Z,88.20
2022-11-15T01:24:17.711Z,88.20
2022-11-15T01:25:17.955Z,88.19
2022-11-15T01:26:18.041Z,88.18
2022-11-15T01:27:17.461Z,88.07
2022-11-15T01:28:17.501Z,88.13
2022-11-15T01:29:17.589Z,88.20
2022-11-15T01:30:18.085Z,88.31
2022-11-15T01:31:17.494Z,88.31
2022-11-15T01:32:17.796Z,88.26
2022-11-15T01:33:18.156Z,88.23
2022-11-15T01:34:17.625Z,88.18
2022-11-15T01:35:18.344Z,88.33
2022-11-15T01:36:17.305Z,88.32
2022-11-15T01:37:17.597Z,88.27
2022-11-15T01:38:17.658Z,88.18
2022-11-15T01:39:17.685Z,88.10
2022-11-15T01:40:17.889Z,88.23
2022-11-15T01:41:17.985Z,88.01
2022-11-15T01:42:17.342Z,87.98
2022-11-15T01:43:17.644Z,87.98
2022-11-15T01:44:17.893Z,88.11
2022-11-15T01:45:18.648Z,88.31
2022-11-15T01:46:17.705Z,88.35
2022-11-15T01:47:18.059Z,88.32
2022-11-15T01:48:17.523Z,88.31
2022-11-15T01:49:17.719Z,88.37
2022-11-15T01:50:17.570Z,88.28
2022-11-15T01:51:17.697Z,88.24
2022-11-15T01:52:17.872Z,88.18
2022-11-15T01:53:18.340Z,88.19
2022-11-15T01:54:17.729Z,88.28
2022-11-15T01:55:18.268Z,88.20
2022-11-15T01:56:17.837Z,88.25
2022-11-15T01:57:18.046Z,88.31
2022-11-15T01:58:17.679Z,88.19
2022-11-15T01:59:18.138Z,88.14
2022-11-15T02:00:18.540Z,88.25
2022-11-15T02:01:18.111Z,88.06
2022-11-15T02:02:18.210Z,87.83
2022-11-15T02:03:17.932Z,87.89
2022-11-15T02:04:18.475Z,87.76
2022-11-15T02:05:17.833Z,87.83
2022-11-15T02:06:18.440Z,87.80
2022-11-15T02:07:17.935Z,87.80
2022-11-15T02:08:18.360Z,87.86
2022-11-15T02:09:18.220Z,87.90
2022-11-15T02:10:17.793Z,87.84
2022-11-15T02:11:18.075Z,88.06
2022-11-15T02:12:17.458Z,88.19
2022-11-15T02:13:18.106Z,88.10
2022-11-15T02:14:17.558Z,88.04
2022-11-15T02:15:18.192Z,88.02
2022-11-15T02:16:17.545Z,88.26
2022-11-15T02:17:18.237Z,88.47
2022-11-15T02:18:17.976Z,88.60
2022-11-15T02:19:18.236Z,88.60
2022-11-15T02:20:17.840Z,88.68
2022-11-15T02:21:18.207Z,88.56
2022-11-15T02:22:17.666Z,88.50
2022-11-15T02:23:18.252Z,88.60
2022-11-15T02:24:17.882Z,88.71
2022-11-15T02:25:18.345Z,88.66
2022-11-15T02:26:17.556Z,88.61
2022-11-15T02:27:18.115Z,88.62
2022-11-15T02:28:17.656Z,88.83
2022-11-15T02:29:17.951Z,88.76
2022-11-15T02:30:18.686Z,88.86
2022-11-15T02:31:17.823Z,88.66
2022-11-15T02:32:17.758Z,88.57
2022-11-15T02:33:17.973Z,88.30
2022-11-15T02:34:18.173Z,88.39
2022-11-15T02:35:17.243Z,88.67
2022-11-15T02:36:17.423Z,88.52
2022-11-15T02:37:18.412Z,88.37
2022-11-15T02:38:17.231Z,88.45
2022-11-15T02:39:17.629Z,88.46
2022-11-15T02:40:17.783Z,88.60
2022-11-15T02:41:17.842Z,88.58
2022-11-15T02:42:18.096Z,88.68
2022-11-15T02:43:17.101Z,88.73
2022-11-15T02:44:17.348Z,88.82
2022-11-15T02:45:17.258Z,88.85
2022-11-15T02:46:17.735Z,88.90
2022-11-15T02:47:17.909Z,88.94
2022-11-15T02:48:17.916Z,89.01
2022-11-15T02:49:18.403Z,88.94
2022-11-15T02:50:17.769Z,88.89
2022-11-15T02:51:17.793Z,88.94
2022-11-15T02:52:17.692Z,88.86
2022-11-15T02:53:17.817Z,88.79
2022-11-15T02:54:18.349Z,88.91
2022-11-15T02:55:17.828Z,88.83
2022-11-15T02:56:17.754Z,88.95
2022-11-15T02:57:18.145Z,89.06
2022-11-15T02:58:17.268Z,89.11
2022-11-15T02:59:17.170Z,89.07
2022-11-15T03:00:18.177Z,89.10
2022-11-15T03:01:17.588Z,88.95
2022-11-15T03:02:17.792Z,88.77
2022-11-15T03:03:18.196Z,88.83
2022-11-15T03:04:17.165Z,88.91
2022-11-15T03:05:18.172Z,88.90
2022-11-15T03:06:17.383Z,88.78
2022-11-15T03:07:17.893Z,88.78
2022-11-15T03:08:18.224Z,88.68
2022-11-15T03:09:17.438Z,88.65
2022-11-15T03:10:17.463Z,88.67
2022-11-15T03:11:17.556Z,88.63
2022-11-15T03:12:17.819Z,88.63
2022-11-15T03:13:18.172Z,88.60
2022-11-15T03:14:17.152Z,88.5
2022-11-15T03:15:17.946Z,88.48
2022-11-15T03:16:17.946Z,88.45
2022-11-15T03:17:18.154Z,88.54
2022-11-15T03:18:17.048Z,88.51
2022-11-15T03:19:17.307Z,88.48
2022-11-15T03:20:17.543Z,88.39
2022-11-15T03:21:17.677Z,88.36
2022-11-15T03:22:17.923Z,88.27
2022-11-15T03:23:18.449Z,88.26
2022-11-15T03:24:21.962Z,88.32
2022-11-15T03:25:18.016Z,88.35
2022-11-15T03:26:17.006Z,88.37
2022-11-15T03:27:17.416Z,88.31
2022-11-15T03:28:17.666Z,88.35
2022-11-15T03:29:17.680Z,88.33
2022-11-15T03:30:17.950Z,88.24
2022-11-15T03:31:17.999Z,88.25
2022-11-15T03:32:17.172Z,88.23
2022-11-15T03:33:17.513Z,88.31
2022-11-15T03:34:17.682Z,88.37
2022-11-15T03:35:17.795Z,88.35
2022-11-15T03:36:17.606Z,88.37
2022-11-15T03:37:31.733Z,88.40
2022-11-15T03:38:18.038Z,88.40
2022-11-15T03:39:22.718Z,88.22
2022-11-15T03:40:17.981Z,88.22
2022-11-15T03:41:17.112Z,88.30
2022-11-15T03:42:16.976Z,88.25
2022-11-15T03:43:18.052Z,88.19
2022-11-15T03:44:17.119Z,88.27
2022-11-15T03:45:17.621Z,88.28
2022-11-15T03:46:17.522Z,88.38
2022-11-15T03:47:18.178Z,88.38
2022-11-15T03:48:17.450Z,88.36
2022-11-15T03:49:17.970Z,88.34
2022-11-15T03:50:18.215Z,88.21
2022-11-15T03:51:17.615Z,88.23
2022-11-15T03:52:17.791Z,88.24
2022-11-15T03:53:17.909Z,88.21
2022-11-15T03:54:18.216Z,88.23
2022-11-15T03:55:17.513Z,88.19
2022-11-15T03:56:17.934Z,88.09
2022-11-15T03:57:18.057Z,88.12
2022-11-15T03:58:17.267Z,88.04
2022-11-15T03:59:17.343Z,88.09
2022-11-15T04:00:18.590Z,88.17
2022-11-15T04:01:18.018Z,88.18
2022-11-15T04:02:17.427Z,88.13
2022-11-15T04:03:18.053Z,88.11
2022-11-15T04:04:17.260Z,88.05
2022-11-15T04:05:17.914Z,87.99
2022-11-15T04:06:17.880Z,87.92
2022-11-15T04:07:18.659Z,87.91
2022-11-15T04:08:17.165Z,87.91
2022-11-15T04:09:17.404Z,87.91
2022-11-15T04:10:18.102Z,87.90
2022-11-15T04:11:17.404Z,87.86
2022-11-15T04:12:17.756Z,87.80
2022-11-15T04:13:18.050Z,87.72
2022-11-15T04:14:17.084Z,87.66
2022-11-15T04:15:17.259Z,87.65
2022-11-15T04:16:17.439Z,87.60
2022-11-15T04:17:17.421Z,87.56
2022-11-15T04:18:17.700Z,87.55
2022-11-15T04:19:18.051Z,87.51
2022-11-15T04:20:17.378Z,87.48
2022-11-15T04:21:17.726Z,87.37
2022-11-15T04:22:18.193Z,87.40
2022-11-15T04:23:17.543Z,87.36
2022-11-15T04:24:17.923Z,87.31
2022-11-15T04:26:17.787Z,87.11
2022-11-15T04:27:18.097Z,87.06
2022-11-15T04:28:17.231Z,87.11
2022-11-15T04:29:17.485Z,87.12
2022-11-15T04:30:18.033Z,87.09
2022-11-15T04:31:17.157Z,87.08
2022-11-15T04:32:17.714Z,87.01
2022-11-15T04:33:17.933Z,86.99
2022-11-15T04:34:17.623Z,87.01
2022-11-15T04:35:18.051Z,87.04
2022-11-15T04:36:17.367Z,87.12
2022-11-15T04:37:17.677Z,87.15
2022-11-15T04:38:17.711Z,87.25
2022-11-15T04:39:17.797Z,87.23
2022-11-15T04:40:17.993Z,87.15
2022-11-15T04:41:17.219Z,87.20
2022-11-15T04:42:17.305Z,87.13
2022-11-15T04:43:17.596Z,87.16
2022-11-15T04:44:17.650Z,87.20
2022-11-15T04:45:18.334Z,87.30
2022-11-15T04:46:17.426Z,87.32
2022-11-15T04:47:17.531Z,87.27
2022-11-15T04:48:17.741Z,87.31
2022-11-15T04:49:18.162Z,87.40
2022-11-15T04:50:17.415Z,87.36
2022-11-15T04:51:18.328Z,87.31
2022-11-15T04:52:17.612Z,87.37
2022-11-15T04:53:17.825Z,87.45
2022-11-15T04:54:18.196Z,87.43
2022-11-15T04:55:17.356Z,87.40
2022-11-15T04:56:17.207Z,87.48
2022-11-15T04:57:17.552Z,87.48
2022-11-15T04:58:17.755Z,87.45
2022-11-15T04:59:18.072Z,87.39
2022-11-15T05:00:18.120Z,87.33
2022-11-15T05:01:17.427Z,87.36
2022-11-15T05:02:17.760Z,87.36
2022-11-15T05:03:18.191Z,87.31
2022-11-15T05:04:17.627Z,87.29
2022-11-15T05:05:18.122Z,87.28
2022-11-15T05:06:17.512Z,87.22
2022-11-15T05:07:18.235Z,87.15
2022-11-15T05:08:17.691Z,87.20
2022-11-15T05:09:17.696Z,87.15
2022-11-15T05:10:18.138Z,87.09
2022-11-15T05:11:17.401Z,87.14
2022-11-15T05:12:17.868Z,87.07
2022-11-15T05:13:17.874Z,87.04
2022-11-15T05:14:18.370Z,87.05
2022-11-15T05:15:17.698Z,87.04
2022-11-15T05:16:18.009Z,86.93
2022-11-15T05:17:17.440Z,86.97
2022-11-15T05:18:23.143Z,86.98
2022-11-15T05:19:17.509Z,86.95
2022-11-15T05:20:17.469Z,86.91
2022-11-15T05:21:18.373Z,86.79
2022-11-15T05:22:17.574Z,86.71
2022-11-15T05:23:17.610Z,86.61
2022-11-15T05:24:17.693Z,86.39
2022-11-15T05:25:18.326Z,86.17
2022-11-15T05:26:18.209Z,86.07
2022-11-15T05:27:17.476Z,86.10
2022-11-15T05:28:17.591Z,86.07
2022-11-15T05:29:17.739Z,86.04
2022-11-15T05:30:18.521Z,86.04
2022-11-15T05:31:17.759Z,85.98
2022-11-15T05:32:18.177Z,85.96
2022-11-15T05:33:17.367Z,85.94
2022-11-15T05:34:17.651Z,85.93
2022-11-15T05:35:17.784Z,85.92
2022-11-15T05:36:18.122Z,85.87
2022-11-15T05:37:17.834Z,85.86
2022-11-15T05:38:18.206Z,85.81
2022-11-15T05:39:17.690Z,85.76
2022-11-15T05:40:18.548Z,85.76
2022-11-15T05:41:18.673Z,85.73
2022-11-15T05:42:19.457Z,85.67
2022-11-15T05:43:18.045Z,85.62
2022-11-15T05:44:17.634Z,85.62
2022-11-15T05:45:23.870Z,85.63
2022-11-15T05:46:18.505Z,85.60
2022-11-15T05:47:18.708Z,85.57
2022-11-15T05:48:18.799Z,85.55
2022-11-15T05:49:18.285Z,85.58
2022-11-15T05:50:18.157Z,85.54
2022-11-15T05:51:17.839Z,85.51
2022-11-15T05:52:19.380Z,85.45
2022-11-15T05:53:17.938Z,85.48
2022-11-15T05:54:18.951Z,85.46
2022-11-15T05:55:18.748Z,85.34
2022-11-15T05:56:18.447Z,85.32
2022-11-15T05:57:18.118Z,85.34
2022-11-15T05:58:17.991Z,85.31
2022-11-15T05:59:17.328Z,85.27
2022-11-15T06:00:18.855Z,85.09
2022-11-15T06:01:18.424Z,84.98
2022-11-15T06:02:23.222Z,85.00
2022-11-15T06:03:18.067Z,84.99
2022-11-15T06:04:17.638Z,84.88
2022-11-15T06:05:18.472Z,84.82
2022-11-15T06:07:18.299Z,84.73
2022-11-15T06:08:17.931Z,84.75
2022-11-15T06:09:18.479Z,84.82
2022-11-15T06:10:18.154Z,84.81
2022-11-15T06:11:17.835Z,84.85
2022-11-15T06:12:18.761Z,84.83
2022-11-15T06:13:18.439Z,84.84
2022-11-15T06:14:17.903Z,84.79
2022-11-15T06:15:19.184Z,84.80
2022-11-15T06:16:17.421Z,84.74
2022-11-15T06:17:18.170Z,84.73
2022-11-15T06:18:17.529Z,84.69
2022-11-15T06:19:18.011Z,84.64
2022-11-15T06:20:18.248Z,84.63
2022-11-15T06:21:17.835Z,84.69
2022-11-15T06:22:18.410Z,84.69
2022-11-15T06:23:18.374Z,84.64
2022-11-15T06:24:18.354Z,84.64
2022-11-15T06:25:18.379Z,84.52
2022-11-15T06:26:17.925Z,84.48
2022-11-15T06:27:18.728Z,84.51
2022-11-15T06:28:19.329Z,84.54
2022-11-15T06:29:18.582Z,84.49
2022-11-15T06:30:18.676Z,84.48
2022-11-15T06:31:19.268Z,84.45
2022-11-15T06:32:18.704Z,84.36
2022-11-15T06:33:19.406Z,84.33
2022-11-15T06:34:18.293Z,84.29
2022-11-15T06:35:18.136Z,84.32
2022-11-15T06:37:19.228Z,84.34
2022-11-15T06:38:18.013Z,84.43
2022-11-15T06:39:18.193Z,84.47
2022-11-15T06:40:18.174Z,84.50
2022-11-15T06:41:18.033Z,84.41
2022-11-15T06:42:17.487Z,84.31
2022-11-15T06:43:18.416Z,84.35
2022-11-15T06:44:19.094Z,84.48
2022-11-15T06:45:17.690Z,84.47
2022-11-15T06:46:18.773Z,84.33
2022-11-15T06:47:19.305Z,84.20
2022-11-15T06:48:18.539Z,84.12
2022-11-15T06:49:18.877Z,84.08
2022-11-15T06:50:18.710Z,84.04
2022-11-15T06:51:19.048Z,84.13
2022-11-15T06:52:18.695Z,84.05
2022-11-15T06:53:19.735Z,84.15
2022-11-15T06:54:18.520Z,84.28
2022-11-15T06:55:19.229Z,84.25
2022-11-15T06:56:17.873Z,84.23
2022-11-15T06:57:18.917Z,84.27
2022-11-15T06:58:18.583Z,84.28
2022-11-15T06:59:18.381Z,84.30
2022-11-15T07:00:19.733Z,84.20
2022-11-15T07:01:18.704Z,84.24
2022-11-15T07:02:18.846Z,84.21
2022-11-15T07:03:19.273Z,84.23
2022-11-15T07:04:18.308Z,84.07
2022-11-15T07:05:18.848Z,83.95
2022-11-15T07:06:18.641Z,83.95
2022-11-15T07:07:18.988Z,83.97
2022-11-15T07:08:17.773Z,83.87
2022-11-15T07:09:19.207Z,83.91
2022-11-15T07:10:18.478Z,83.96
2022-11-15T07:11:18.877Z,83.97
2022-11-15T07:12:19.293Z,83.91
2022-11-15T07:13:18.716Z,83.97
2022-11-15T07:14:18.728Z,83.87
2022-11-15T07:15:19.219Z,83.88
2022-11-15T07:16:18.461Z,83.80
2022-11-15T07:17:18.971Z,83.76
2022-11-15T07:18:19.482Z,83.69
2022-11-15T07:19:18.986Z,83.71
2022-11-15T07:20:18.618Z,83.75
2022-11-15T07:21:19.107Z,83.63
2022-11-15T07:22:18.759Z,83.80
2022-11-15T07:23:19.371Z,83.83
2022-11-15T07:24:18.394Z,83.81
2022-11-15T07:25:19.203Z,83.73
2022-11-15T07:26:19.121Z,83.69
2022-11-15T07:27:18.733Z,83.63
2022-11-15T07:28:19.887Z,83.60
2022-11-15T07:29:18.377Z,83.48
2022-11-15T07:30:22.492Z,83.35
2022-11-15T07:31:18.284Z,83.18
2022-11-15T07:32:18.940Z,83.30
2022-11-15T07:33:18.761Z,83.39
2022-11-15T07:34:19.172Z,83.33
2022-11-15T07:35:18.832Z,83.13
2022-11-15T07:36:19.237Z,83.04
2022-11-15T07:37:18.779Z,82.94
2022-11-15T07:38:19.170Z,82.99
2022-11-15T07:39:18.948Z,83.08
2022-11-15T07:40:19.649Z,82.94
2022-11-15T07:41:19.498Z,82.89
2022-11-15T07:42:18.888Z,82.69
2022-11-15T07:43:19.522Z,82.77
2022-11-15T07:44:18.516Z,82.79
2022-11-15T07:45:19.341Z,82.73
2022-11-15T07:46:19.176Z,82.65
2022-11-15T07:47:18.441Z,82.66
2022-11-15T07:48:18.858Z,82.95
2022-11-15T07:49:18.931Z,82.96
2022-11-15T07:50:19.315Z,82.85
2022-11-15T07:51:21.545Z,82.94
2022-11-15T07:52:18.541Z,82.88
2022-11-15T07:53:18.875Z,82.75
2022-11-15T07:54:19.473Z,82.71
2022-11-15T07:55:19.155Z,82.74
2022-11-15T07:56:18.850Z,82.64
2022-11-15T07:57:19.226Z,82.69
2022-11-15T07:58:18.439Z,82.80
2022-11-15T07:59:18.576Z,82.76
2022-11-15T08:00:20.181Z,82.66
2022-11-15T08:01:19.574Z,82.50
2022-11-15T08:02:19.251Z,82.48
2022-11-15T08:03:18.683Z,82.55
2022-11-15T08:04:18.658Z,82.63
2022-11-15T08:05:19.710Z,82.46
2022-11-15T08:06:19.018Z,82.26
2022-11-15T08:07:23.564Z,82.12
2022-11-15T08:08:18.919Z,82.16
2022-11-15T08:09:23.639Z,82.10
2022-11-15T08:10:18.210Z,82.10
2022-11-15T08:11:18.044Z,82.09
2022-11-15T08:12:17.877Z,82.17
2022-11-15T08:13:19.068Z,82.09
2022-11-15T08:14:17.739Z,81.92
2022-11-15T08:15:18.810Z,81.71
2022-11-15T08:16:18.345Z,81.76
2022-11-15T08:17:22.933Z,81.71
2022-11-15T08:18:18.731Z,81.59
2022-11-15T08:19:18.754Z,81.56
2022-11-15T08:20:18.079Z,81.66
2022-11-15T08:21:24.762Z,82.08
2022-11-15T08:22:18.581Z,82.08
2022-11-15T08:23:18.240Z,82.03
2022-11-15T08:24:17.879Z,82.01
2022-11-15T08:25:18.408Z,81.97
2022-11-15T08:26:18.147Z,81.98
2022-11-15T08:27:18.228Z,81.73
2022-11-15T08:28:17.917Z,81.47
2022-11-15T08:29:18.252Z,81.36
2022-11-15T08:30:18.414Z,81.41
2022-11-15T08:31:18.159Z,81.35
2022-11-15T08:32:18.000Z,81.25
2022-11-15T08:33:17.713Z,81.21
2022-11-15T08:34:18.755Z,81.25
2022-11-15T08:35:19.152Z,81.16
2022-11-15T08:36:17.706Z,81.16
2022-11-15T08:37:18.727Z,81.01
2022-11-15T08:38:18.230Z,80.92
2022-11-15T08:39:18.339Z,80.87
2022-11-15T08:40:18.443Z,80.84
2022-11-15T08:41:18.315Z,80.87
2022-11-15T08:43:18.598Z,80.72
2022-11-15T08:44:18.562Z,80.66
2022-11-15T08:45:18.722Z,80.72
2022-11-15T08:46:18.323Z,80.71
2022-11-15T08:47:17.777Z,80.56
2022-11-15T08:48:18.392Z,80.35
2022-11-15T08:49:18.053Z,80.30
2022-11-15T08:50:18.281Z,80.31
2022-11-15T08:51:18.021Z,80.40
2022-11-15T08:52:18.012Z,80.36
2022-11-15T08:53:17.855Z,80.28
2022-11-15T08:54:18.246Z,79.94
2022-11-15T08:55:39.499Z,79.70
2022-11-15T08:56:17.795Z,79.70
2022-11-15T08:57:18.575Z,79.90
2022-11-15T08:58:18.499Z,79.91
2022-11-15T08:59:17.913Z,79.84
2022-11-15T09:00:19.651Z,79.75
2022-11-15T09:01:24.738Z,79.72
2022-11-15T09:02:18.336Z,79.72
2022-11-15T09:03:18.084Z,79.71
2022-11-15T09:04:17.513Z,79.25
2022-11-15T09:05:18.483Z,79.11
2022-11-15T09:06:18.408Z,78.92
2022-11-15T09:07:18.041Z,78.77
2022-11-15T09:08:53.017Z,78.68
2022-11-15T09:09:17.957Z,78.68
2022-11-15T09:10:18.671Z,78.71
2022-11-15T09:11:45.949Z,78.55
2022-11-15T09:12:18.641Z,78.55
2022-11-15T09:13:18.583Z,78.56
2022-11-15T09:14:18.345Z,78.56
2022-11-15T09:15:18.448Z,78.55
2022-11-15T09:16:18.180Z,78.41
2022-11-15T09:17:23.217Z,78.37
2022-11-15T09:18:18.301Z,78.26
2022-11-15T09:19:18.630Z,78.28
2022-11-15T09:20:18.507Z,78.21
2022-11-15T09:21:18.477Z,78.09
2022-11-15T09:22:18.214Z,78.08
2022-11-15T09:23:18.082Z,78.14
2022-11-15T09:24:17.697Z,77.73
2022-11-15T09:25:18.698Z,77.91
2022-11-15T09:26:17.969Z,77.88
2022-11-15T09:27:19.596Z,77.72
2022-11-15T09:28:18.252Z,76.94
2022-11-15T09:29:18.012Z,76.83
2022-11-15T09:30:18.160Z,76.87
2022-11-15T09:31:21.094Z,77.02
2022-11-15T09:32:18.056Z,77.28
2022-11-15T09:33:18.418Z,77.22
2022-11-15T09:34:19.352Z,77.06
2022-11-15T09:35:17.865Z,76.96
2022-11-15T09:36:18.598Z,76.69
2022-11-15T09:37:18.701Z,76.63
2022-11-15T09:38:18.139Z,76.62
2022-11-15T09:39:18.708Z,76.63
2022-11-15T09:40:18.575Z,76.66
2022-11-15T09:42:18.474Z,76.54
2022-11-15T09:43:18.379Z,76.34
2022-11-15T09:44:25.098Z,76.49
2022-11-15T09:45:18.696Z,75.94
2022-11-15T09:46:18.304Z,75.92
2022-11-15T09:47:18.124Z,75.41
2022-11-15T09:48:17.988Z,75.17
2022-11-15T09:49:18.020Z,75.16
2022-11-15T09:50:17.770Z,75
2022-11-15T09:51:18.386Z,75.02
2022-11-15T09:52:18.433Z,74.86
2022-11-15T09:53:33.096Z,74.54
2022-11-15T09:54:59.197Z,74.57
2022-11-15T09:55:18.259Z,74.57
2022-11-15T09:56:18.391Z,74.78
2022-11-15T09:57:23.218Z,74.62
2022-11-15T09:58:18.225Z,74.62
2022-11-15T09:59:18.124Z,74.69
2022-11-15T10:00:51.770Z,74.83
2022-11-15T10:01:18.848Z,74.83
2022-11-15T10:02:18.984Z,75.43
2022-11-15T10:03:18.607Z,75.05
2022-11-15T10:04:18.721Z,74.45
2022-11-15T10:05:17.933Z,74.31
2022-11-15T10:06:17.665Z,74.18
2022-11-15T10:07:17.981Z,74.20
2022-11-15T10:08:17.041Z,74.26
2022-11-15T10:09:21.258Z,74.12
2022-11-15T10:10:18.424Z,73.87
2022-11-15T10:11:43.746Z,73.51
2022-11-15T10:12:17.936Z,73.51
2022-11-15T10:13:18.422Z,73.20
2022-11-15T10:14:17.811Z,72.97
2022-11-15T10:15:18.715Z,72.55
2022-11-15T10:16:17.543Z,72.60
2022-11-15T10:17:18.174Z,72.61
2022-11-15T10:18:17.519Z,72.73
2022-11-15T10:19:17.646Z,72.91
2022-11-15T10:20:17.937Z,72.90
2022-11-15T10:21:17.873Z,73.07
2022-11-15T10:22:18.687Z,73.12
2022-11-15T10:23:18.213Z,73.29
2022-11-15T10:24:18.630Z,73.22
2022-11-15T10:25:18.583Z,72.99
2022-11-15T10:26:18.144Z,72.92
2022-11-15T10:27:18.475Z,73.07
2022-11-15T10:28:18.644Z,73.09
2022-11-15T10:29:18.826Z,72.96
2022-11-15T10:30:18.913Z,73.07
2022-11-15T10:31:21.873Z,72.51
2022-11-15T10:33:18.687Z,72.73
2022-11-15T10:34:18.496Z,72.64
2022-11-15T10:35:18.659Z,72.62
2022-11-15T10:36:23.917Z,72.64
2022-11-15T10:37:18.497Z,72.59
2022-11-15T10:38:18.543Z,72.73
2022-11-15T10:39:18.739Z,72.99
2022-11-15T10:40:18.351Z,72.85
2022-11-15T10:41:18.417Z,72.82
2022-11-15T10:43:18.802Z,72.81
2022-11-15T10:44:19.003Z,72.86
2022-11-15T10:45:18.505Z,73.19
2022-11-15T10:46:51.702Z,73.51
2022-11-15T10:47:18.652Z,73.51
2022-11-15T10:48:18.354Z,73.67
2022-11-15T10:49:18.413Z,73.83
2022-11-15T10:50:18.319Z,73.94
2022-11-15T10:51:18.338Z,74.15
2022-11-15T10:52:31.660Z,74.35
2022-11-15T10:53:18.464Z,74.35
2022-11-15T10:54:32.063Z,74.37
2022-11-15T10:55:18.372Z,74.37
2022-11-15T10:56:31.996Z,74.25
2022-11-15T10:57:21.090Z,74.25
2022-11-15T10:58:32.353Z,73.86
2022-11-15T10:59:18.537Z,73.86
2022-11-15T11:00:20.298Z,73.82
2022-11-15T11:01:19.171Z,73.81
2022-11-15T11:02:19.152Z,73.85
2022-11-15T11:03:18.924Z,74.02
2022-11-15T11:04:19.643Z,74.23
2022-11-15T11:05:19.502Z,74.43
2022-11-15T11:06:27.527Z,74.72
2022-11-15T11:07:19.081Z,74.76
2022-11-15T11:08:18.824Z,74.47
2022-11-15T11:09:19.337Z,74.62
2022-11-15T11:10:52.351Z,74.46
2022-11-15T11:11:18.893Z,74.46
2022-11-15T11:12:19.776Z,74.48
2022-11-15T11:13:19.395Z,74.30
2022-11-15T11:14:19.101Z,74.54
2022-11-15T11:15:19.226Z,74.71
2022-11-15T11:16:19.353Z,74.46
2022-11-15T11:17:18.840Z,74.20
2022-11-15T11:18:19.372Z,73.97
2022-11-15T11:19:18.899Z,73.36
2022-11-15T11:20:18.799Z,72.92
2022-11-15T11:21:19.037Z,73.04
2022-11-15T11:22:19.007Z,72.75
2022-11-15T11:23:18.524Z,72.34
2022-11-15T11:24:18.911Z,72.36
2022-11-15T11:25:19.535Z,72.54
2022-11-15T11:26:18.954Z,72.57
2022-11-15T11:27:19.761Z,72.57
2022-11-15T11:28:19.607Z,72.70
2022-11-15T11:29:18.872Z,72.53
2022-11-15T11:30:20.136Z,72.61
2022-11-15T11:31:18.855Z,72.47
2022-11-15T11:32:38.570Z,72.18
2022-11-15T11:33:19.382Z,72.04
2022-11-15T11:34:17.789Z,71.86
2022-11-15T11:35:18.812Z,71.73
2022-11-15T11:36:18.341Z,71.97
2022-11-15T11:37:18.133Z,71.99
2022-11-15T11:38:18.138Z,72.23
2022-11-15T11:39:18.238Z,72.11
2022-11-15T11:40:18.572Z,71.97
2022-11-15T11:41:18.143Z,71.87
2022-11-15T11:42:18.351Z,71.89
2022-11-15T11:43:18.015Z,72.04
2022-11-15T11:44:18.118Z,71.94
2022-11-15T11:45:18.440Z,71.52
2022-11-15T11:46:18.214Z,71.45
2022-11-15T11:47:17.968Z,71.52
2022-11-15T11:48:19.020Z,71.65
2022-11-15T11:49:17.434Z,71.87
2022-11-15T11:50:17.882Z,71.98
2022-11-15T11:51:18.573Z,72.02
2022-11-15T11:52:18.318Z,72.13
2022-11-15T11:53:20.327Z,72.12
2022-11-15T11:54:18.278Z,72.05
2022-11-15T11:55:18.243Z,71.93
2022-11-15T11:56:18.782Z,71.76
2022-11-15T11:57:18.460Z,71.82
2022-11-15T11:58:18.456Z,71.72
2022-11-15T11:59:18.198Z,71.87
2022-11-15T12:00:19.078Z,71.97
2022-11-15T12:01:19.624Z,72.16
2022-11-15T12:02:19.152Z,72.17
2022-11-15T12:03:18.742Z,72.23
2022-11-15T12:04:18.400Z,72.30
2022-11-15T12:05:18.345Z,72.28
2022-11-15T12:06:18.509Z,72.27
2022-11-15T12:07:18.643Z,72.34
2022-11-15T12:08:18.284Z,72.43
2022-11-15T12:09:18.534Z,72.36
2022-11-15T12:10:18.506Z,72.32
2022-11-15T12:11:18.600Z,72.51
2022-11-15T12:12:18.380Z,72.36
2022-11-15T12:13:18.063Z,72.39
2022-11-15T12:14:18.062Z,72.44
2022-11-15T12:15:18.132Z,72.36
2022-11-15T12:16:18.104Z,72.50
2022-11-15T12:17:18.158Z,72.54
2022-11-15T12:18:18.065Z,72.45
2022-11-15T12:19:17.804Z,72.49
2022-11-15T12:20:19.299Z,72.45
2022-11-15T12:21:18.475Z,72.50
2022-11-15T12:22:18.932Z,72.58
2022-11-15T12:23:19.007Z,72.42
2022-11-15T12:24:18.091Z,72.40
2022-11-15T12:25:18.237Z,72.48
2022-11-15T12:26:17.983Z,72.54
2022-11-15T12:27:23.266Z,72.57
2022-11-15T12:28:17.981Z,72.46
2022-11-15T12:29:17.847Z,72.21
2022-11-15T12:30:19.519Z,72.03
2022-11-15T12:31:18.589Z,72.01
2022-11-15T12:32:18.386Z,71.97
2022-11-15T12:33:18.380Z,72.03
2022-11-15T12:34:18.259Z,72.12
2022-11-15T12:35:17.995Z,72.22
2022-11-15T12:36:17.897Z,72.24
2022-11-15T12:37:19.101Z,72.27
2022-11-15T12:38:18.025Z,72.23
2022-11-15T12:39:17.840Z,72.14
2022-11-15T12:40:18.645Z,72.19
2022-11-15T12:41:18.477Z,72.15
2022-11-15T12:42:18.938Z,72.05
2022-11-15T12:43:18.575Z,72.08
2022-11-15T12:44:18.374Z,72.15
2022-11-15T12:45:18.335Z,72.30
2022-11-15T12:46:17.912Z,72.25
2022-11-15T12:47:23.068Z,72.29
2022-11-15T12:48:18.859Z,72.19
2022-11-15T12:49:18.422Z,71.97
2022-11-15T12:50:18.532Z,71.90
2022-11-15T12:51:18.521Z,71.90
2022-11-15T12:52:18.196Z,71.90
2022-11-15T12:53:18.125Z,71.83
2022-11-15T12:54:17.940Z,71.91
2022-11-15T12:55:18.695Z,71.99
2022-11-15T12:56:17.956Z,72.10
2022-11-15T12:57:18.598Z,72.18
2022-11-15T12:58:18.404Z,72.21
2022-11-15T12:59:18.012Z,72.26
2022-11-15T13:00:22.754Z,72.02